Terminal Aerodrome Forecast
Issued by NWS

Home | Current Version | Previous Version | Text Only | Print | Product List | Glossary On
Versions: 1 2 3 4 5 6 7 8 9 10 11 12 13 14 15 16 17 18 19 20 21 22 23 24 25 26 27 28 29 30 31 32 33 34
715
FTUS46 KOTX 211303 AAA
TAFSFF
TAF AMD
KSFF 211303Z 2113/2212 VRB03KT 1/2SM FG VV004
     FM211600 VRB03KT P6SM SCT004 OVC200
     FM211900 07003KT 4SM -RA BR BKN015 OVC030
     FM220200 VRB03KT 6SM -RA OVC015=

USA.gov is the U.S. government's official web portal to all federal, state and local government web resources and services.